Terminal Aerodrome Forecast
Issued by NWS Sterling, VA

Current Version | Previous Version | Graphics & Text | Print | Product List | Glossary On
Versions: 1 2 3 4 5 6 7 8 9 10 11 12 13 14 15 16 17 18 19 20 21 22 23 24 25 26
000
FTUS41 KLWX 272333
TAFDCA
TAF
KDCA 272333Z 2800/2824 19009KT P6SM VCSH FEW040 OVC220
     FM281000 27004KT P6SM BKN100
     FM281200 VRB04KT 5SM -SHRA OVC050
     FM281700 18005KT P6SM -SHRA OVC030
     FM282300 09006KT 3SM +SHRA OVC030=

USA.gov is the U.S. government's official web portal to all federal, state and local government web resources and services.